createdAt,value
2022-11-28T00:01:24.955Z,7.78
2022-11-28T00:03:51.658Z,7.66
2022-11-28T00:06:18.203Z,7.68
2022-11-28T00:08:45.244Z,7.66
2022-11-28T00:11:13.549Z,7.61
2022-11-28T00:13:40.497Z,7.64
2022-11-28T00:16:08.817Z,7.72
2022-11-28T00:18:35.542Z,7.65
2022-11-28T00:21:07.241Z,7.69
2022-11-28T00:23:34.167Z,7.70
2022-11-28T00:26:06.712Z,7.65
2022-11-28T00:28:33.562Z,7.61
2022-11-28T00:31:00.208Z,7.58
2022-11-28T00:33:27.173Z,7.63
2022-11-28T00:36:00.082Z,7.62
2022-11-28T00:38:27.251Z,7.58
2022-11-28T00:41:05.578Z,7.66
2022-11-28T00:43:32.306Z,7.63
2022-11-28T00:45:59.011Z,7.65
2022-11-28T00:48:26.097Z,7.68
2022-11-28T00:50:53.177Z,7.66
2022-11-28T00:53:19.682Z,7.64
2022-11-28T00:55:46.497Z,7.65
2022-11-28T00:58:12.896Z,7.66
2022-11-28T01:00:39.743Z,7.66
2022-11-28T01:03:06.162Z,7.68
2022-11-28T01:05:32.535Z,7.63
2022-11-28T01:07:58.961Z,7.66
2022-11-28T01:10:26.991Z,7.74
2022-11-28T01:12:53.326Z,7.67
2022-11-28T01:15:19.661Z,7.64
2022-11-28T01:17:46.002Z,7.64
2022-11-28T01:20:12.988Z,7.68
2022-11-28T01:22:39.330Z,7.61
2022-11-28T01:25:05.977Z,7.64
2022-11-28T01:27:32.411Z,7.67
2022-11-28T01:29:58.781Z,7.69
2022-11-28T01:32:25.393Z,7.69
2022-11-28T01:34:51.913Z,7.77
2022-11-28T01:37:18.262Z,7.82
2022-11-28T01:39:44.608Z,7.80
2022-11-28T01:42:20.822Z,7.86
2022-11-28T01:44:49.823Z,7.89
2022-11-28T01:47:21.512Z,7.91
2022-11-28T01:49:49.804Z,7.87
2022-11-28T01:52:19.517Z,7.88
2022-11-28T01:54:50.546Z,7.86
2022-11-28T01:57:19.907Z,7.89
2022-11-28T01:59:56.685Z,7.89
2022-11-28T02:03:13.000Z,7.89
2022-11-28T02:05:39.882Z,7.86
2022-11-28T02:08:08.534Z,7.78
2022-11-28T02:10:40.742Z,7.82
2022-11-28T02:13:13.108Z,7.77
2022-11-28T02:15:49.371Z,7.65
2022-11-28T02:18:34.298Z,7.61
2022-11-28T02:21:16.715Z,7.66
2022-11-28T02:23:59.121Z,7.66
2022-11-28T02:26:31.638Z,7.64
2022-11-28T02:29:33.989Z,7.64
2022-11-28T02:32:15.326Z,7.66
2022-11-28T02:35:24.005Z,7.67
2022-11-28T02:38:02.263Z,7.70
2022-11-28T02:40:51.304Z,7.72
2022-11-28T02:43:24.255Z,7.68
2022-11-28T02:45:56.217Z,7.68
2022-11-28T02:48:41.259Z,7.64
2022-11-28T02:51:20.837Z,7.65
2022-11-28T02:53:49.615Z,7.66
2022-11-28T02:56:15.933Z,7.70
2022-11-28T02:58:42.353Z,7.64
2022-11-28T03:01:35.746Z,7.73
2022-11-28T03:04:26.557Z,7.67
2022-11-28T03:07:40.839Z,7.67
2022-11-28T03:10:13.057Z,7.59
2022-11-28T03:12:56.048Z,7.60
2022-11-28T03:15:30.838Z,7.66
2022-11-28T03:18:23.173Z,7.60
2022-11-28T03:21:00.128Z,7.63
2022-11-28T03:23:36.996Z,7.60
2022-11-28T03:26:12.994Z,7.63
2022-11-28T03:28:54.556Z,7.69
2022-11-28T03:31:27.695Z,7.68
2022-11-28T03:33:58.954Z,7.68
2022-11-28T03:36:46.146Z,7.71
2022-11-28T03:39:17.572Z,7.75
2022-11-28T03:41:55.705Z,7.77
2022-11-28T03:44:27.835Z,7.76
2022-11-28T03:46:57.648Z,7.81
2022-11-28T03:49:30.334Z,7.80
2022-11-28T03:52:03.391Z,7.80
2022-11-28T03:54:58.925Z,7.81
2022-11-28T03:57:37.570Z,7.88
2022-11-28T04:00:06.785Z,7.87
2022-11-28T04:02:42.619Z,7.86
2022-11-28T04:05:22.477Z,7.82
2022-11-28T04:08:26.686Z,7.81
2022-11-28T04:11:00.409Z,7.71
2022-11-28T04:13:43.161Z,7.81
2022-11-28T04:16:12.352Z,7.80
2022-11-28T04:19:00.046Z,7.85
2022-11-28T04:21:37.681Z,7.84
2022-11-28T04:24:09.212Z,7.85
2022-11-28T04:26:40.998Z,7.87
2022-11-28T04:29:11.116Z,7.84
2022-11-28T04:31:40.966Z,7.90
2022-11-28T04:34:11.208Z,7.91
2022-11-28T04:36:40.312Z,7.91
2022-11-28T04:39:13.046Z,7.91
2022-11-28T04:41:53.458Z,7.86
2022-11-28T04:44:27.932Z,7.84
2022-11-28T04:46:56.497Z,7.92
2022-11-28T04:49:26.028Z,7.84
2022-11-28T04:52:03.729Z,7.90
2022-11-28T04:54:42.704Z,7.85
2022-11-28T04:57:18.870Z,7.88
2022-11-28T04:59:47.271Z,7.80
2022-11-28T05:02:16.079Z,7.85
2022-11-28T05:04:44.202Z,7.81
2022-11-28T05:07:10.913Z,7.81
2022-11-28T05:09:37.224Z,7.75
2022-11-28T05:12:04.276Z,7.81
2022-11-28T05:14:30.615Z,7.76
2022-11-28T05:16:57.017Z,7.83
2022-11-28T05:19:23.743Z,7.77
2022-11-28T05:21:50.136Z,7.80
2022-11-28T05:24:16.496Z,7.80
2022-11-28T05:26:43.254Z,7.79
2022-11-28T05:29:09.706Z,7.80
2022-11-28T05:31:37.679Z,7.79
2022-11-28T05:34:04.235Z,7.78
2022-11-28T05:36:30.554Z,7.79
2022-11-28T05:38:56.966Z,7.75
2022-11-28T05:41:26.062Z,7.80
2022-11-28T05:43:53.161Z,7.77
2022-11-28T05:46:20.346Z,7.77
2022-11-28T05:48:47.230Z,7.78
2022-11-28T05:51:13.736Z,7.81
2022-11-28T05:53:40.245Z,7.85
2022-11-28T05:56:11.743Z,7.83
2022-11-28T05:58:38.375Z,7.83
2022-11-28T06:01:15.136Z,7.89
2022-11-28T06:03:42.297Z,7.82
2022-11-28T06:06:17.746Z,7.86
2022-11-28T06:08:45.133Z,7.89
2022-11-28T06:11:14.768Z,7.87
2022-11-28T06:13:42.485Z,7.90
2022-11-28T06:16:15.308Z,7.92
2022-11-28T06:18:42.290Z,7.87
2022-11-28T06:21:10.651Z,7.88
2022-11-28T06:23:37.554Z,7.87
2022-11-28T06:26:12.808Z,7.91
2022-11-28T06:28:39.726Z,7.92
2022-11-28T06:31:13.364Z,7.96
2022-11-28T06:33:40.138Z,7.96
2022-11-28T06:36:07.185Z,7.93
2022-11-28T06:38:33.893Z,7.93
2022-11-28T06:41:03.517Z,7.95
2022-11-28T06:43:30.786Z,7.97
2022-11-28T06:45:57.215Z,7.95
2022-11-28T06:48:24.145Z,7.94
2022-11-28T06:50:51.161Z,8.00
2022-11-28T06:53:17.862Z,7.97
2022-11-28T06:55:44.974Z,7.98
2022-11-28T06:58:11.870Z,7.97
2022-11-28T07:00:38.687Z,7.97
2022-11-28T07:03:05.180Z,7.99
2022-11-28T07:05:31.526Z,8.02
2022-11-28T07:07:58.625Z,7.96
2022-11-28T07:10:25.813Z,8.00
2022-11-28T07:13:03.913Z,8.00
2022-11-28T07:15:31.815Z,7.94
2022-11-28T07:17:58.177Z,8.01
2022-11-28T07:20:24.565Z,7.93
2022-11-28T07:22:50.963Z,7.97
2022-11-28T07:25:17.345Z,7.95
2022-11-28T07:27:44.234Z,7.99
2022-11-28T07:30:11.142Z,8.01
2022-11-28T07:32:41.091Z,8.12
2022-11-28T07:35:08.841Z,8.10
2022-11-28T07:37:35.836Z,8.05
2022-11-28T07:40:02.236Z,8.04
2022-11-28T07:42:28.595Z,8.07
2022-11-28T07:44:55.032Z,8.00
2022-11-28T07:47:21.845Z,8.01
2022-11-28T07:49:48.197Z,8.05
2022-11-28T07:52:14.582Z,8.06
2022-11-28T07:54:41.059Z,8.08
2022-11-28T07:57:14.649Z,8.07
2022-11-28T07:59:41.287Z,8.05
2022-11-28T08:02:10.480Z,8.11
2022-11-28T08:04:37.501Z,8.10
2022-11-28T08:07:03.954Z,8.11
2022-11-28T08:09:32.072Z,8.17
2022-11-28T08:11:58.711Z,8.17
2022-11-28T08:14:25.354Z,8.20
2022-11-28T08:16:52.348Z,8.23
2022-11-28T08:19:23.000Z,8.22
2022-11-28T08:21:51.390Z,8.20
2022-11-28T08:24:17.748Z,8.15
2022-11-28T08:26:44.179Z,8.21
2022-11-28T08:29:10.960Z,8.22
2022-11-28T08:31:38.827Z,8.24
2022-11-28T08:34:08.326Z,8.25
2022-11-28T08:36:34.683Z,8.29
2022-11-28T08:39:22.748Z,8.28
2022-11-28T08:41:49.697Z,8.20
2022-11-28T08:44:16.261Z,8.29
2022-11-28T08:46:42.625Z,8.25
2022-11-28T08:49:09.018Z,8.20
2022-11-28T08:51:36.556Z,8.27
2022-11-28T08:54:03.029Z,8.19
2022-11-28T08:56:29.496Z,8.18
2022-11-28T08:58:55.964Z,8.21
2022-11-28T09:01:25.490Z,8.22
2022-11-28T09:03:54.162Z,8.23
2022-11-28T09:06:21.144Z,8.23
2022-11-28T09:08:48.704Z,8.26
2022-11-28T09:11:18.069Z,8.26
2022-11-28T09:13:44.655Z,8.27
2022-11-28T09:16:11.465Z,8.28
2022-11-28T09:18:37.981Z,8.25
2022-11-28T09:21:09.360Z,8.33
2022-11-28T09:23:37.247Z,8.35
2022-11-28T09:26:10.773Z,8.38
2022-11-28T09:28:37.434Z,8.36
2022-11-28T09:31:05.699Z,8.40
2022-11-28T09:33:32.874Z,8.45
2022-11-28T09:36:03.855Z,8.45
2022-11-28T09:38:30.233Z,8.36
2022-11-28T09:40:56.537Z,8.41
2022-11-28T09:43:31.329Z,8.42
2022-11-28T09:46:00.440Z,8.42
2022-11-28T09:48:26.815Z,8.41
2022-11-28T09:50:58.313Z,8.43
2022-11-28T09:53:34.845Z,8.42
2022-11-28T09:56:10.913Z,8.47
2022-11-28T09:58:50.295Z,8.55
2022-11-28T10:01:29.606Z,8.58
2022-11-28T10:03:59.821Z,8.50
2022-11-28T10:06:48.383Z,8.49
2022-11-28T10:09:41.198Z,8.61
2022-11-28T10:12:21.208Z,8.59
2022-11-28T10:15:12.131Z,8.59
2022-11-28T10:17:46.005Z,8.54
2022-11-28T10:20:20.773Z,8.62
2022-11-28T10:23:02.190Z,8.62
2022-11-28T10:25:39.173Z,8.60
2022-11-28T10:28:09.890Z,8.69
2022-11-28T10:30:42.821Z,8.78
2022-11-28T10:33:16.808Z,8.80
2022-11-28T10:35:58.207Z,8.83
2022-11-28T10:38:27.704Z,8.82
2022-11-28T10:41:18.323Z,8.89
2022-11-28T10:43:59.396Z,8.82
2022-11-28T10:46:25.755Z,8.84
2022-11-28T10:48:59.119Z,8.90
2022-11-28T10:51:49.592Z,8.93
2022-11-28T10:54:34.093Z,8.91
2022-11-28T10:57:11.064Z,8.97
2022-11-28T10:59:54.284Z,8.95
2022-11-28T11:02:22.309Z,8.98
2022-11-28T11:04:48.835Z,8.98
2022-11-28T11:07:29.469Z,9.00
2022-11-28T11:10:02.465Z,8.92
2022-11-28T11:12:32.382Z,8.94
2022-11-28T11:14:58.850Z,8.90
2022-11-28T11:17:43.446Z,8.96
2022-11-28T11:20:30.686Z,9.02
2022-11-28T11:23:10.924Z,9.10
2022-11-28T11:25:37.368Z,9.01
2022-11-28T11:28:04.736Z,9.01
2022-11-28T11:30:39.244Z,9.01
2022-11-28T11:33:12.981Z,9.04
2022-11-28T11:35:48.813Z,9.13
2022-11-28T11:38:38.159Z,9.19
2022-11-28T11:41:29.711Z,9.24
2022-11-28T11:44:17.181Z,9.21
2022-11-28T11:46:58.280Z,9.30
2022-11-28T11:49:35.975Z,9.18
2022-11-28T11:52:12.730Z,9.18
2022-11-28T11:54:40.082Z,9.16
2022-11-28T11:57:31.965Z,9.09
2022-11-28T12:00:00.749Z,9.13
2022-11-28T12:02:43.211Z,9.18
2022-11-28T12:05:13.349Z,9.08
2022-11-28T12:07:52.009Z,9.08
2022-11-28T12:10:22.367Z,9.12
2022-11-28T12:12:48.761Z,9.08
2022-11-28T12:15:26.229Z,9.13
2022-11-28T12:17:58.816Z,9.20
2022-11-28T12:20:47.142Z,9.23
2022-11-28T12:23:36.161Z,9.32
2022-11-28T12:26:16.749Z,9.27
2022-11-28T12:28:48.991Z,9.28
2022-11-28T12:31:29.056Z,9.25
2022-11-28T12:34:06.603Z,9.29
2022-11-28T12:36:39.116Z,9.36
2022-11-28T12:39:19.713Z,9.39
2022-11-28T12:41:59.234Z,9.34
2022-11-28T12:44:44.147Z,9.35
2022-11-28T12:47:19.717Z,9.43
2022-11-28T12:50:24.378Z,9.44
2022-11-28T12:53:31.834Z,9.43
2022-11-28T12:56:26.202Z,9.47
2022-11-28T12:59:19.807Z,9.44
2022-11-28T13:02:18.810Z,9.41
2022-11-28T13:04:52.924Z,9.41
2022-11-28T13:07:28.011Z,9.43
2022-11-28T13:10:13.566Z,9.38
2022-11-28T13:12:56.408Z,9.45
2022-11-28T13:15:50.342Z,9.41
2022-11-28T13:18:48.184Z,9.33
2022-11-28T13:21:36.189Z,9.37
2022-11-28T13:24:27.547Z,9.36
2022-11-28T13:27:00.881Z,9.40
2022-11-28T13:29:49.451Z,9.44
2022-11-28T13:32:57.205Z,9.45
2022-11-28T13:35:24.346Z,9.38
2022-11-28T13:40:59.022Z,9.50
2022-11-28T13:43:33.131Z,9.54
2022-11-28T13:46:00.115Z,9.51
2022-11-28T13:51:30.871Z,9.65
2022-11-28T13:54:27.825Z,9.65
2022-11-28T13:57:29.963Z,9.63
2022-11-28T13:59:58.160Z,9.58
2022-11-28T14:02:36.873Z,9.59
2022-11-28T14:05:05.017Z,9.59
2022-11-28T14:07:33.677Z,9.63
2022-11-28T14:10:01.414Z,9.63
2022-11-28T14:13:03.862Z,9.65
2022-11-28T14:15:41.006Z,9.65
2022-11-28T14:21:45.249Z,9.70
2022-11-28T14:24:42.961Z,9.66
2022-11-28T14:27:20.941Z,9.65
2022-11-28T14:29:50.707Z,9.61
2022-11-28T14:32:32.041Z,9.68
2022-11-28T14:34:58.573Z,9.65
2022-11-28T14:37:27.371Z,9.66
2022-11-28T14:39:55.657Z,9.73
2022-11-28T14:42:58.940Z,9.79
2022-11-28T14:45:40.648Z,9.84
2022-11-28T14:48:14.757Z,9.85
2022-11-28T14:50:41.119Z,9.81
2022-11-28T14:53:35.248Z,9.87
2022-11-28T14:56:13.757Z,9.89
2022-11-28T14:58:45.204Z,9.93
2022-11-28T15:01:16.158Z,9.89
2022-11-28T15:03:59.961Z,9.91
2022-11-28T15:06:36.761Z,9.92
2022-11-28T15:09:45.051Z,9.91
2022-11-28T15:12:17.286Z,9.89
2022-11-28T15:14:47.192Z,9.90
2022-11-28T15:17:14.824Z,9.91
2022-11-28T15:19:47.788Z,9.86
2022-11-28T15:22:41.798Z,9.94
2022-11-28T15:25:29.453Z,9.88
2022-11-28T15:27:56.767Z,9.82
2022-11-28T15:30:26.524Z,9.86
2022-11-28T15:33:00.048Z,9.84
2022-11-28T15:35:27.495Z,9.84
2022-11-28T15:37:57.243Z,9.85
2022-11-28T15:40:32.526Z,9.88
2022-11-28T15:43:00.268Z,9.85
2022-11-28T15:45:35.331Z,9.88
2022-11-28T15:48:01.929Z,9.89
2022-11-28T15:50:30.900Z,9.89
2022-11-28T15:53:18.305Z,9.92
2022-11-28T15:55:45.516Z,9.89
2022-11-28T15:58:25.514Z,9.86
2022-11-28T16:01:00.718Z,9.86
2022-11-28T16:03:31.889Z,9.83
2022-11-28T16:05:59.501Z,9.81
2022-11-28T16:08:33.487Z,9.85
2022-11-28T16:11:02.887Z,9.85
2022-11-28T16:13:31.407Z,9.86
2022-11-28T16:16:01.215Z,9.84
2022-11-28T16:18:28.720Z,9.78
2022-11-28T16:20:58.059Z,9.80
2022-11-28T16:23:33.948Z,9.82
2022-11-28T16:26:20.002Z,9.79
2022-11-28T16:28:59.046Z,9.80
2022-11-28T16:31:27.094Z,9.80
2022-11-28T16:33:54.029Z,9.82
2022-11-28T16:36:26.591Z,9.90
2022-11-28T16:39:12.238Z,9.90
2022-11-28T16:42:07.763Z,9.97
2022-11-28T16:44:34.237Z,9.95
2022-11-28T16:47:00.933Z,10.00
2022-11-28T16:49:37.935Z,10.02
2022-11-28T16:52:27.974Z,10.07
2022-11-28T16:54:55.475Z,10.05
2022-11-28T16:57:22.780Z,10.07
2022-11-28T16:59:53.557Z,10.06
2022-11-28T17:02:25.474Z,10.01
2022-11-28T17:04:53.210Z,10.01
2022-11-28T17:07:22.139Z,10.00
2022-11-28T17:09:49.407Z,9.98
2022-11-28T17:12:25.941Z,10.01
2022-11-28T17:14:52.366Z,10.00
2022-11-28T17:17:20.585Z,10.05
2022-11-28T17:19:47.099Z,10.06
2022-11-28T17:22:22.673Z,10.09
2022-11-28T17:24:50.020Z,10.08
2022-11-28T17:27:16.789Z,10.01
2022-11-28T17:29:43.745Z,9.99
2022-11-28T17:32:12.199Z,9.99
2022-11-28T17:34:38.884Z,9.94
2022-11-28T17:37:05.597Z,10.02
2022-11-28T17:39:32.027Z,10.02
2022-11-28T17:41:58.851Z,9.99
2022-11-28T17:44:36.208Z,10.05
2022-11-28T17:47:03.430Z,10.02
2022-11-28T17:49:33.688Z,10.00
2022-11-28T17:52:00.102Z,9.89
2022-11-28T17:54:27.231Z,9.95
2022-11-28T17:56:54.164Z,9.92
2022-11-28T17:59:22.485Z,9.94
2022-11-28T18:01:49.471Z,9.89
2022-11-28T18:04:16.248Z,9.89
2022-11-28T18:06:45.009Z,9.89
2022-11-28T18:09:12.784Z,9.92
2022-11-28T18:11:40.549Z,9.89
2022-11-28T18:14:07.263Z,9.90
2022-11-28T18:16:36.114Z,9.97
2022-11-28T18:19:03.264Z,9.92
2022-11-28T18:21:29.643Z,9.96
2022-11-28T18:23:55.993Z,9.98
2022-11-28T18:26:24.954Z,10.03
2022-11-28T18:28:51.787Z,10.04
2022-11-28T18:31:24.437Z,10.08
2022-11-28T18:33:51.677Z,10.09
2022-11-28T18:36:21.219Z,10.12
2022-11-28T18:38:47.759Z,10.12
2022-11-28T18:41:18.161Z,10.16
2022-11-28T18:43:44.843Z,10.15
2022-11-28T18:46:14.539Z,10.19
2022-11-28T18:48:43.186Z,10.20
2022-11-28T18:51:14.802Z,10.21
2022-11-28T18:53:41.983Z,10.20
2022-11-28T18:56:08.754Z,10.18
2022-11-28T18:58:36.651Z,10.18
2022-11-28T19:01:17.970Z,10.21
2022-11-28T19:03:49.844Z,10.22
2022-11-28T19:06:16.671Z,10.21
2022-11-28T19:08:43.005Z,10.17
2022-11-28T19:11:14.304Z,10.18
2022-11-28T19:13:45.463Z,10.19
2022-11-28T19:16:14.775Z,10.21
2022-11-28T19:18:42.290Z,10.20
2022-11-28T19:21:10.632Z,10.23
2022-11-28T19:23:38.432Z,10.23
2022-11-28T19:26:07.555Z,10.24
2022-11-28T19:28:38.983Z,10.18
2022-11-28T19:31:07.609Z,10.08
2022-11-28T19:33:34.671Z,10.02
2022-11-28T19:36:06.141Z,10.03
2022-11-28T19:38:33.676Z,9.98
2022-11-28T19:41:06.855Z,9.97
2022-11-28T19:43:34.230Z,9.94
2022-11-28T19:46:00.984Z,9.91
2022-11-28T19:48:32.748Z,9.95
2022-11-28T19:50:59.588Z,9.92
2022-11-28T19:53:26.091Z,9.89
2022-11-28T19:55:53.929Z,9.93
2022-11-28T19:58:20.402Z,9.94
2022-11-28T20:00:47.024Z,9.94
2022-11-28T20:03:13.655Z,9.95
2022-11-28T20:05:41.220Z,9.99
2022-11-28T20:08:08.235Z,9.97
2022-11-28T20:10:38.983Z,9.99
2022-11-28T20:13:06.414Z,9.97
2022-11-28T20:15:36.685Z,9.96
2022-11-28T20:18:03.599Z,9.90
2022-11-28T20:20:30.387Z,9.86
2022-11-28T20:22:57.552Z,9.80
2022-11-28T20:25:24.031Z,9.74
2022-11-28T20:27:50.434Z,9.71
2022-11-28T20:30:17.014Z,9.69
2022-11-28T20:32:43.396Z,9.69
2022-11-28T20:35:10.068Z,9.72
2022-11-28T20:37:37.902Z,9.74
2022-11-28T20:40:05.089Z,9.72
2022-11-28T20:42:39.445Z,9.76
2022-11-28T20:45:06.814Z,9.76
2022-11-28T20:47:34.684Z,9.78
2022-11-28T20:50:01.017Z,9.75
2022-11-28T20:52:27.369Z,9.78
2022-11-28T20:54:53.765Z,9.80
2022-11-28T20:57:22.221Z,9.78
2022-11-28T20:59:49.004Z,9.78
2022-11-28T21:02:15.622Z,9.76
2022-11-28T21:04:42.076Z,9.79
2022-11-28T21:07:08.647Z,9.79
2022-11-28T21:09:35.053Z,9.78
2022-11-28T21:12:01.462Z,9.78
2022-11-28T21:14:28.625Z,9.81
2022-11-28T21:16:55.765Z,9.70
2022-11-28T21:19:22.436Z,9.66
2022-11-28T21:21:48.758Z,9.67
2022-11-28T21:24:15.188Z,9.68
2022-11-28T21:26:46.690Z,9.69
2022-11-28T21:29:18.287Z,9.66
2022-11-28T21:31:45.489Z,9.59
2022-11-28T21:34:14.315Z,9.56
2022-11-28T21:36:41.188Z,9.55
2022-11-28T21:39:07.643Z,9.52
2022-11-28T21:41:34.093Z,9.49
2022-11-28T21:44:00.772Z,9.55
2022-11-28T21:46:27.785Z,9.55
2022-11-28T21:48:54.299Z,9.59
2022-11-28T21:51:23.527Z,9.65
2022-11-28T21:53:50.613Z,9.60
2022-11-28T21:56:17.096Z,9.59
2022-11-28T21:58:44.166Z,9.62
2022-11-28T22:01:13.120Z,9.61
2022-11-28T22:03:40.883Z,9.60
2022-11-28T22:06:19.754Z,9.60
2022-11-28T22:08:46.294Z,9.55
2022-11-28T22:11:13.237Z,9.50
2022-11-28T22:13:42.129Z,9.45
2022-11-28T22:16:15.969Z,9.41
2022-11-28T22:18:42.808Z,9.37
2022-11-28T22:21:43.261Z,9.35
2022-11-28T22:23:56.317Z,9.28
2022-11-28T22:26:22.794Z,9.23
2022-11-28T22:28:53.583Z,9.25
2022-11-28T22:31:20.670Z,9.23
2022-11-28T22:33:49.115Z,9.28
2022-11-28T22:36:17.438Z,9.30
2022-11-28T22:38:44.976Z,9.30
2022-11-28T22:41:16.260Z,9.32
2022-11-28T22:43:42.658Z,9.22
2022-11-28T22:46:10.429Z,9.25
2022-11-28T22:48:38.402Z,9.30
2022-11-28T22:51:09.929Z,9.31
2022-11-28T22:53:36.539Z,9.27
2022-11-28T22:56:11.446Z,9.26
2022-11-28T22:58:45.018Z,9.25
2022-11-28T23:01:17.693Z,9.27
2022-11-28T23:03:45.090Z,9.21
2022-11-28T23:06:17.979Z,9.24
2022-11-28T23:08:45.476Z,9.16
2022-11-28T23:11:14.870Z,9.18
2022-11-28T23:13:42.463Z,9.15
2022-11-28T23:16:37.104Z,9.18
2022-11-28T23:19:15.617Z,9.17
2022-11-28T23:21:45.261Z,9.20
2022-11-28T23:24:17.872Z,9.23
2022-11-28T23:26:44.782Z,9.24
2022-11-28T23:29:11.626Z,9.16
2022-11-28T23:31:40.607Z,9.18
2022-11-28T23:34:07.611Z,9.17
2022-11-28T23:36:42.518Z,9.15
2022-11-28T23:39:15.054Z,9.14
2022-11-28T23:41:42.149Z,9.08
2022-11-28T23:44:10.658Z,9.08
2022-11-28T23:46:38.007Z,9.07
2022-11-28T23:49:05.633Z,9.04
2022-11-28T23:51:32.126Z,9.01
2022-11-28T23:53:58.469Z,9.03
2022-11-28T23:56:27.395Z,9.04
2022-11-28T23:58:56.621Z,9.04
